Arches, Utah
Current Conditions -  °F | °C
As of 6:53 PM on Friday 21 Nov 2014 (Local Time) from KCNY Reporting Station
Clear Clear  
Wind Chill: 32°   Ceiling: Unl
Heat Index: 32°   Visibility: 10mi
Dew Point: 12°   Wind: 0mph
Humidity: 44%   Direction: NA
Pressure: 30.04"   Gusts: NA
Location:  38.6903°N, 109.256°W
Report Text: KCNY 220153Z AUTO 00000KT 10SM CLR 00/M11 A3004 RMK AO2 SLP206 T00001111
Loading
Personal Weather Stations






























Interactive Weather Map New forecast layout! Learn more

10-Day Weather Forecast

Advertisements
Track Severe Weather on mobile